This is the latest recevied weather packets stored in our database for station/object KB4MOX. If no packets are shown the sender has not sent any weather packets the latest 10 day(s).
| Time | Temp. | Humidity | Pressure | Rain* | Wind** | Luminosity | Snow |
|---|---|---|---|---|---|---|---|
| 1778178728 | 23.89° C | 82% | 1011.1 hPa | 0 mm | - | 391 W/m² | - |
| 1778178426 | 23.33° C | 83% | 1011.1 hPa | 0 mm | - | 507 W/m² | - |
| 1778178121 | 22.78° C | 87% | 1011 hPa | 0 mm | - | 895 W/m² | - |
| 1778177818 | 22.78° C | 86% | 1011.1 hPa | 0 mm | - | 597 W/m² | - |
| 1778177514 | 22.78° C | 89% | 1011.1 hPa | 0 mm | - | 393 W/m² | - |
| 1778177210 | 22.78° C | 88% | 1011 hPa | 0 mm | - | 416 W/m² | - |
| 1778176908 | 22.78° C | 87% | 1010.9 hPa | 0 mm | - | 317 W/m² | - |
| 1778176603 | 22.22° C | 91% | 1011.1 hPa | 0 mm | - | 649 W/m² | - |
| 1778176301 | 22.22° C | 90% | 1011.1 hPa | 0 mm | - | 451 W/m² | - |
| 1778175998 | 22.22° C | 93% | 1010.8 hPa | 0 mm | - | 595 W/m² | - |
| 1778175696 | 21.67° C | 95% | 1011.1 hPa | 0 mm | - | 823 W/m² | - |
| 1778175393 | 21.67° C | 96% | 1011 hPa | 0 mm | - | 605 W/m² | - |
| 1778175090 | 21.11° C | 97% | 1011.2 hPa | 0 mm | - | 696 W/m² | - |
| 1778174786 | 20.56° C | 98% | 1011.3 hPa | 0 mm | - | 513 W/m² | - |
| 1778174484 | 20.56° C | 98% | 1011 hPa | 0 mm | - | 846 W/m² | - |
| 1778174178 | 20° C | 98% | 1011.4 hPa | 0 mm | - | 343 W/m² | - |
| 1778173876 | 20° C | 98% | 1011.5 hPa | 3.05 mm | - | 203 W/m² | - |
| 1778173573 | 20° C | 98% | 1011.4 hPa | 1.27 mm | - | 214 W/m² | - |
| 1778173269 | 20° C | 98% | 1011.3 hPa | 0 mm | - | 269 W/m² | - |
| 1778172965 | 20° C | 98% | 1011.3 hPa | 6.6 mm | - | 280 W/m² | - |
| 1778172661 | 19.44° C | 98% | 1011.4 hPa | 13.72 mm | - | 399 W/m² | - |
| 1778172358 | 18.89° C | 98% | 1011.8 hPa | 39.62 mm | - | 94 W/m² | - |
| 1778172055 | 18.89° C | 98% | 1011.8 hPa | 33.53 mm | - | 39 W/m² | - |
| 1778171752 | 18.89° C | 98% | 1012 hPa | 11.94 mm | - | 41 W/m² | - |
| 1778171445 | 18.89° C | 98% | 1011.5 hPa | 19.81 mm | - | 69 W/m² | - |
* Rain latest hour (hover to see other rain measurements)
** Current wind speed in m/s (hover to see current wind gust speed)